AYMO

Momote Airport

Papua New Guinea

AYMO 230400Z 09004KT 9999 BKN018 31/26 Q1007

Observed Flight Rules
Oct-23 @ 04:00 UTC (2 hours ago)
 
Marginal Visual Flight Rules
Wind Visibility Clouds
90° at 4 knots 10,000+ meters
  • Broken at 1,800' AGL
Temperatures Readings
Current 31°C / 88°F
Dewpoint 26°C / 79°F
Humidity 75%
Altimeter 29.73" Hg
Pressure 1007 hPa
Elevation 4
Observed Flight Rules
Oct-23 @ 04:00 UTC
(2 hours ago)
 
MVFR
Wind Visibility
90° at 4 knots 10,000+ meters
Clouds
  • Broken at 1,800' AGL
Temperature Dewpoint
31°C / 88°F 26°C / 79°F
Humidity Altimeter Pressure
75% 29.73" Hg 1007 hPa